Time;durP1;ratioP1;P1;durP2;ratioP2;P2;SDS_P1;SDS_P2;PMS_P1;PMS_P2;Temp;Humidity;BMP_temperature;BMP_pressure;BME280_temperature;BME280_humidity;BME280_pressure;Samples;Min_cycle;Max_cycle;Signal;HPM_P1;HPM_P2
2022/10/15 00:00:40;;;;;;;50.57;32.70;;;;;;;;;;5015332;28;20201;-79
2022/10/15 00:03:06;;;;;;;37.50;29.03;;;;;;;;;;5016842;28;20265;-79
2022/10/15 00:05:32;;;;;;;44.13;30.93;;;;;;;;;;5016627;28;20267;-79
2022/10/15 00:07:58;;;;;;;40.87;29.10;;;;;;;;;;5015478;28;20220;-79
2022/10/15 00:10:24;;;;;;;52.37;29.97;;;;;;;;;;5015509;28;20189;-79
2022/10/15 00:12:50;;;;;;;50.17;29.80;;;;;;;;;;5014807;28;20287;-79
2022/10/15 00:15:16;;;;;;;95.20;34.73;;;;;;;;;;5016700;28;20272;-79
2022/10/15 00:17:42;;;;;;;173.87;39.20;;;;;;;;;;5015135;28;20200;-79
2022/10/15 00:20:09;;;;;;;120.83;36.67;;;;;;;;;;5014802;28;20229;-79
2022/10/15 00:22:35;;;;;;;128.80;36.40;;;;;;;;;;5001939;28;20232;-79
2022/10/15 00:25:01;;;;;;;115.10;36.43;;;;;;;;;;5016067;28;20189;-82
2022/10/15 00:27:27;;;;;;;142.43;36.97;;;;;;;;;;5015330;28;20193;-88
2022/10/15 00:29:53;;;;;;;104.90;32.67;;;;;;;;;;5016399;28;20224;-88
2022/10/15 00:32:19;;;;;;;110.90;33.83;;;;;;;;;;4998911;28;20204;-81
2022/10/15 00:34:46;;;;;;;114.43;34.53;;;;;;;;;;5015032;28;20212;-82
2022/10/15 00:37:12;;;;;;;82.10;31.47;;;;;;;;;;5016411;28;20182;-82
2022/10/15 00:39:38;;;;;;;88.67;34.93;;;;;;;;;;4995012;28;20256;-82
2022/10/15 00:42:04;;;;;;;58.27;30.03;;;;;;;;;;5010621;28;20284;-81
2022/10/15 00:44:30;;;;;;;77.30;30.87;;;;;;;;;;5015553;28;20181;-82
2022/10/15 00:47:06;;;;;;;100.50;33.87;;;;;;;;;;5014726;28;20201;-81
2022/10/15 00:49:40;;;;;;;114.17;35.27;;;;;;;;;;5020171;22;20232;-81
2022/10/15 00:52:07;;;;;;;64.30;29.73;;;;;;;;;;4994726;28;20190;-82
2022/10/15 00:54:37;;;;;;;55.37;30.03;;;;;;;;;;4980939;28;20178;-81
2022/10/15 00:57:04;;;;;;;94.70;32.67;;;;;;;;;;4996371;28;20178;-81
2022/10/15 00:59:31;;;;;;;89.97;34.87;;;;;;;;;;4994805;28;20244;-82
2022/10/15 01:01:59;;;;;;;237.37;38.93;;;;;;;;;;4996224;28;20193;-82
2022/10/15 01:04:25;;;;;;;127.97;35.80;;;;;;;;;;4994585;28;20186;-81
2022/10/15 01:06:51;;;;;;;143.13;36.33;;;;;;;;;;4995258;28;20214;-76
2022/10/15 01:09:17;;;;;;;244.30;43.37;;;;;;;;;;4978594;28;20275;-76
2022/10/15 01:11:46;;;;;;;62.90;30.57;;;;;;;;;;4994724;28;20309;-81
2022/10/15 01:14:38;;;;;;;96.83;29.90;;;;;;;;;;4984698;28;20201;-81
2022/10/15 01:17:07;;;;;;;96.83;33.30;;;;;;;;;;4992075;28;20199;-81
2022/10/15 01:20:05;;;;;;;62.67;30.03;;;;;;;;;;4993835;28;20185;-81
2022/10/15 01:22:37;;;;;;;58.93;25.73;;;;;;;;;;4963220;28;20245;-80
2022/10/15 01:25:06;;;;;;;53.40;27.83;;;;;;;;;;4995691;28;20178;-88
2022/10/15 01:27:43;;;;;;;80.10;30.27;;;;;;;;;;5018884;28;20181;-87
2022/10/15 01:30:15;;;;;;;42.37;25.27;;;;;;;;;;4994727;28;20211;-88
2022/10/15 01:33:01;;;;;;;42.50;25.90;;;;;;;;;;4998720;28;20204;-88
2022/10/15 01:35:33;;;;;;;57.00;26.87;;;;;;;;;;4982779;28;20242;-88
2022/10/15 01:38:03;;;;;;;73.57;27.33;;;;;;;;;;4994533;28;20186;-81
2022/10/15 01:40:33;;;;;;;51.63;25.43;;;;;;;;;;4994163;28;20193;-81
2022/10/15 01:43:00;;;;;;;64.07;25.10;;;;;;;;;;4995357;28;20257;-81
2022/10/15 01:45:33;;;;;;;65.23;25.83;;;;;;;;;;4995499;28;20190;-81
2022/10/15 01:48:01;;;;;;;53.70;25.77;;;;;;;;;;4994103;28;20190;-81
2022/10/15 01:50:29;;;;;;;64.13;26.60;;;;;;;;;;4992735;28;20368;-81
2022/10/15 01:52:56;;;;;;;45.60;25.77;;;;;;;;;;4995023;28;20238;-81
2022/10/15 01:55:24;;;;;;;39.43;24.00;;;;;;;;;;4993992;28;20261;-81
2022/10/15 01:57:51;;;;;;;46.93;25.00;;;;;;;;;;5009342;28;20178;-81
2022/10/15 02:00:17;;;;;;;39.90;25.77;;;;;;;;;;4993439;28;20194;-83
2022/10/15 02:02:43;;;;;;;38.73;25.70;;;;;;;;;;4983175;28;20194;-82
2022/10/15 02:05:14;;;;;;;36.90;27.17;;;;;;;;;;4977721;28;20190;-82
2022/10/15 02:07:46;;;;;;;32.73;25.70;;;;;;;;;;4997483;28;20182;-78
2022/10/15 02:10:12;;;;;;;32.57;25.30;;;;;;;;;;4985840;28;20194;-88
2022/10/15 02:12:57;;;;;;;34.20;26.13;;;;;;;;;;4975781;28;20199;-78
2022/10/15 02:15:26;;;;;;;34.10;24.77;;;;;;;;;;5002403;28;20236;-77
2022/10/15 02:18:09;;;;;;;33.10;26.07;;;;;;;;;;4994908;28;20174;-77
2022/10/15 02:20:47;;;;;;;34.50;26.30;;;;;;;;;;4993401;28;20261;-80
2022/10/15 02:23:17;;;;;;;29.37;24.20;;;;;;;;;;4993863;28;20192;-80
2022/10/15 02:25:43;;;;;;;30.17;24.80;;;;;;;;;;4993615;28;20235;-80
2022/10/15 02:28:11;;;;;;;33.10;26.10;;;;;;;;;;4995159;28;20328;-80
2022/10/15 02:30:38;;;;;;;26.87;23.73;;;;;;;;;;4991772;28;20212;-82
2022/10/15 02:33:04;;;;;;;30.93;24.57;;;;;;;;;;5007360;28;20218;-82
2022/10/15 02:35:32;;;;;;;27.10;23.77;;;;;;;;;;5009515;28;20234;-82
2022/10/15 02:38:01;;;;;;;29.53;23.70;;;;;;;;;;4993654;28;20189;-82
2022/10/15 02:40:29;;;;;;;26.70;22.50;;;;;;;;;;4990680;28;20257;-82
2022/10/15 02:42:55;;;;;;;32.83;25.67;;;;;;;;;;5000254;28;20277;-81
2022/10/15 02:45:21;;;;;;;31.80;24.47;;;;;;;;;;5000948;28;20208;-88
2022/10/15 02:47:47;;;;;;;29.67;22.87;;;;;;;;;;4975231;28;20191;-88
2022/10/15 02:50:13;;;;;;;32.10;23.40;;;;;;;;;;4977176;28;20237;-88
2022/10/15 02:52:39;;;;;;;31.97;22.93;;;;;;;;;;4985423;28;20201;-88
2022/10/15 02:55:05;;;;;;;27.87;22.93;;;;;;;;;;5009934;28;20197;-77
2022/10/15 02:57:31;;;;;;;24.47;21.87;;;;;;;;;;4976605;28;20201;-77
2022/10/15 02:59:57;;;;;;;30.23;22.47;;;;;;;;;;4993611;28;20190;-77
2022/10/15 03:02:23;;;;;;;27.87;22.40;;;;;;;;;;4976553;28;20191;-77
2022/10/15 03:04:49;;;;;;;26.40;22.60;;;;;;;;;;4992618;28;20190;-77
2022/10/15 03:07:15;;;;;;;24.17;21.57;;;;;;;;;;4991135;28;20183;-77
2022/10/15 03:09:41;;;;;;;24.93;22.23;;;;;;;;;;4998002;28;20197;-77
2022/10/15 03:12:07;;;;;;;28.47;23.17;;;;;;;;;;4980877;28;20185;-77
2022/10/15 03:14:33;;;;;;;24.37;21.63;;;;;;;;;;4980504;28;20248;-77
2022/10/15 03:16:59;;;;;;;27.33;22.43;;;;;;;;;;4996985;28;20186;-77
2022/10/15 03:19:25;;;;;;;25.77;20.70;;;;;;;;;;4980930;28;20193;-82
2022/10/15 03:21:51;;;;;;;23.77;20.50;;;;;;;;;;4996347;28;20186;-81
2022/10/15 03:24:17;;;;;;;23.67;20.47;;;;;;;;;;4996129;28;20186;-82
2022/10/15 03:26:46;;;;;;;26.63;20.40;;;;;;;;;;4975284;28;20183;-81
2022/10/15 03:29:13;;;;;;;25.53;20.67;;;;;;;;;;4980267;28;20186;-82
2022/10/15 03:31:39;;;;;;;27.80;21.97;;;;;;;;;;4996841;28;20179;-82
2022/10/15 03:34:05;;;;;;;23.90;21.40;;;;;;;;;;4996392;28;20217;-81
2022/10/15 03:36:31;;;;;;;26.10;21.17;;;;;;;;;;4996043;28;20193;-80
2022/10/15 03:38:57;;;;;;;23.93;20.27;;;;;;;;;;4980469;28;20186;-80
2022/10/15 03:41:23;;;;;;;26.23;21.53;;;;;;;;;;4980221;28;20193;-80
2022/10/15 03:43:49;;;;;;;24.53;21.30;;;;;;;;;;4996842;28;20260;-80
2022/10/15 03:46:15;;;;;;;25.43;21.83;;;;;;;;;;4974706;28;20189;-80
2022/10/15 03:48:41;;;;;;;26.60;22.90;;;;;;;;;;5012877;28;20186;-80
2022/10/15 03:51:07;;;;;;;32.43;24.87;;;;;;;;;;5012090;28;20237;-80
2022/10/15 03:53:33;;;;;;;32.83;24.60;;;;;;;;;;4996278;28;20236;-80
2022/10/15 03:56:06;;;;;;;31.53;24.17;;;;;;;;;;4996515;28;20182;-80
2022/10/15 03:58:32;;;;;;;30.30;24.40;;;;;;;;;;4991020;28;20241;-80
2022/10/15 04:00:58;;;;;;;28.00;24.00;;;;;;;;;;4979727;28;20198;-80
2022/10/15 04:03:24;;;;;;;32.13;25.03;;;;;;;;;;5011835;28;20208;-80
2022/10/15 04:05:53;;;;;;;28.90;24.00;;;;;;;;;;4980473;28;20196;-77
2022/10/15 04:08:19;;;;;;;27.20;23.63;;;;;;;;;;4995778;28;20186;-82
2022/10/15 04:10:45;;;;;;;31.27;24.83;;;;;;;;;;4995858;28;20247;-82
2022/10/15 04:13:11;;;;;;;31.07;24.20;;;;;;;;;;5010876;28;20220;-82
2022/10/15 04:15:40;;;;;;;28.87;23.57;;;;;;;;;;4996766;28;20182;-82
2022/10/15 04:18:06;;;;;;;29.57;23.23;;;;;;;;;;4979861;28;20203;-82
2022/10/15 04:20:32;;;;;;;29.90;23.90;;;;;;;;;;4979418;28;20209;-82
2022/10/15 04:22:58;;;;;;;29.77;24.33;;;;;;;;;;4995619;28;20204;-82
2022/10/15 04:25:24;;;;;;;28.17;21.90;;;;;;;;;;4983435;28;20194;-78
2022/10/15 04:27:52;;;;;;;25.97;22.60;;;;;;;;;;4991688;28;20197;-77
2022/10/15 04:30:18;;;;;;;31.47;23.07;;;;;;;;;;4992662;28;20193;-77
2022/10/15 04:32:44;;;;;;;29.07;22.40;;;;;;;;;;4995695;28;20214;-78
2022/10/15 04:35:10;;;;;;;26.67;22.17;;;;;;;;;;4995134;28;20289;-77
2022/10/15 04:37:36;;;;;;;28.07;22.17;;;;;;;;;;5011877;28;20170;-77
2022/10/15 04:40:03;;;;;;;30.20;23.57;;;;;;;;;;4996442;28;20205;-78
2022/10/15 04:42:29;;;;;;;30.93;22.63;;;;;;;;;;4979503;28;20196;-78
2022/10/15 04:44:55;;;;;;;31.00;23.40;;;;;;;;;;4991840;28;20246;-78
2022/10/15 04:47:22;;;;;;;32.73;24.30;;;;;;;;;;4990594;28;20261;-77
2022/10/15 04:49:48;;;;;;;34.83;24.80;;;;;;;;;;4994963;28;20241;-77
2022/10/15 04:52:14;;;;;;;36.97;25.30;;;;;;;;;;4995171;28;20181;-77
2022/10/15 04:54:40;;;;;;;38.70;26.10;;;;;;;;;;4996192;28;20186;-77
2022/10/15 04:57:06;;;;;;;31.47;23.67;;;;;;;;;;4995281;28;20189;-78
2022/10/15 04:59:32;;;;;;;35.77;24.40;;;;;;;;;;4993804;28;20193;-85
2022/10/15 05:01:58;;;;;;;30.70;23.43;;;;;;;;;;4995245;28;20186;-89
2022/10/15 05:04:24;;;;;;;35.87;24.27;;;;;;;;;;4978977;28;20325;-81
2022/10/15 05:06:51;;;;;;;31.83;24.77;;;;;;;;;;4994991;28;20190;-82
2022/10/15 05:09:17;;;;;;;33.30;25.50;;;;;;;;;;4978115;28;20186;-82
2022/10/15 05:11:43;;;;;;;34.57;25.47;;;;;;;;;;4995563;28;20248;-82
2022/10/15 05:14:09;;;;;;;36.70;25.50;;;;;;;;;;4995215;28;20221;-82
2022/10/15 05:16:35;;;;;;;40.27;25.10;;;;;;;;;;4994872;28;20189;-82
2022/10/15 05:19:02;;;;;;;42.23;25.63;;;;;;;;;;4994840;28;20181;-82
2022/10/15 05:21:30;;;;;;;36.23;25.27;;;;;;;;;;4994887;28;20190;-82
2022/10/15 05:23:56;;;;;;;38.13;25.07;;;;;;;;;;4994154;28;20214;-82
2022/10/15 05:26:23;;;;;;;38.23;25.73;;;;;;;;;;4994478;28;20182;-82
2022/10/15 05:28:50;;;;;;;40.33;27.80;;;;;;;;;;5008397;28;20214;-82
2022/10/15 05:31:17;;;;;;;39.57;27.03;;;;;;;;;;4974989;28;20183;-80
2022/10/15 05:33:43;;;;;;;48.20;29.20;;;;;;;;;;4992415;28;20256;-80
2022/10/15 05:36:17;;;;;;;53.07;31.50;;;;;;;;;;4991569;28;20183;-80
2022/10/15 05:38:47;;;;;;;51.27;31.67;;;;;;;;;;5004313;28;20248;-80
2022/10/15 05:41:13;;;;;;;52.53;33.03;;;;;;;;;;4993744;28;20240;-80
2022/10/15 05:43:39;;;;;;;53.60;32.33;;;;;;;;;;4994688;28;20209;-80
2022/10/15 05:46:09;;;;;;;54.37;33.77;;;;;;;;;;4995383;28;20192;-80
2022/10/15 05:48:35;;;;;;;52.30;32.90;;;;;;;;;;4991455;28;20214;-77
2022/10/15 05:51:05;;;;;;;56.90;33.80;;;;;;;;;;4998799;28;20256;-77
2022/10/15 05:53:31;;;;;;;52.77;33.47;;;;;;;;;;4994643;28;20260;-77
2022/10/15 05:55:58;;;;;;;59.87;34.47;;;;;;;;;;4993663;28;20261;-77
2022/10/15 05:58:24;;;;;;;54.53;33.07;;;;;;;;;;4994894;28;20174;-77
2022/10/15 06:00:57;;;;;;;52.13;33.97;;;;;;;;;;4994263;28;20182;-77
2022/10/15 06:03:24;;;;;;;52.37;33.67;;;;;;;;;;4994226;28;20283;-77
2022/10/15 06:05:50;;;;;;;60.43;33.80;;;;;;;;;;4994446;28;20189;-77
2022/10/15 06:08:16;;;;;;;57.93;34.10;;;;;;;;;;4994829;28;20194;-77
2022/10/15 06:10:43;;;;;;;58.00;35.03;;;;;;;;;;4993449;28;20217;-77
2022/10/15 06:13:09;;;;;;;54.90;35.63;;;;;;;;;;4993320;28;20221;-77
2022/10/15 06:15:38;;;;;;;62.67;38.07;;;;;;;;;;4994805;28;20184;-77
2022/10/15 06:18:04;;;;;;;69.13;40.93;;;;;;;;;;4993567;28;20182;-77
2022/10/15 06:20:30;;;;;;;73.13;43.00;;;;;;;;;;4993561;28;20182;-76
2022/10/15 06:23:00;;;;;;;72.03;42.13;;;;;;;;;;4977888;28;20241;-88
2022/10/15 06:25:26;;;;;;;110.03;52.33;;;;;;;;;;4993857;28;20265;-89
2022/10/15 06:27:52;;;;;;;120.03;54.60;;;;;;;;;;4977609;28;20189;-89
2022/10/15 06:30:18;;;;;;;141.90;60.40;;;;;;;;;;4976895;28;20190;-89
2022/10/15 06:32:48;;;;;;;150.50;63.47;;;;;;;;;;4994047;28;20220;-88
2022/10/15 06:35:19;;;;;;;148.87;61.40;;;;;;;;;;4993310;28;20258;-88
2022/10/15 06:37:45;;;;;;;135.37;58.57;;;;;;;;;;4992656;28;20252;-77
2022/10/15 06:40:14;;;;;;;148.27;60.67;;;;;;;;;;4993094;28;20185;-77
2022/10/15 06:42:40;;;;;;;142.43;59.07;;;;;;;;;;4993152;28;20213;-77
2022/10/15 06:45:07;;;;;;;129.67;56.63;;;;;;;;;;4993841;28;20186;-77
2022/10/15 06:47:33;;;;;;;120.57;55.50;;;;;;;;;;4994593;28;20260;-77
2022/10/15 06:49:59;;;;;;;125.07;57.53;;;;;;;;;;4993321;28;20320;-77
2022/10/15 06:52:25;;;;;;;122.63;56.10;;;;;;;;;;4993827;28;20197;-77
2022/10/15 06:54:52;;;;;;;114.13;51.90;;;;;;;;;;5009901;28;20182;-89
2022/10/15 06:57:18;;;;;;;117.03;53.23;;;;;;;;;;5009895;28;20208;-90
2022/10/15 06:59:44;;;;;;;125.00;52.50;;;;;;;;;;5009702;28;20178;-90
2022/10/15 07:02:10;;;;;;;103.93;49.40;;;;;;;;;;5009708;28;20196;-88
2022/10/15 07:04:36;;;;;;;117.63;51.00;;;;;;;;;;4994544;28;20190;-89
2022/10/15 07:07:02;;;;;;;103.10;50.17;;;;;;;;;;5009942;28;20178;-89
2022/10/15 07:09:28;;;;;;;106.27;49.80;;;;;;;;;;4993519;28;20241;-89
2022/10/15 07:11:55;;;;;;;108.90;50.70;;;;;;;;;;4993848;28;20182;-77
2022/10/15 07:14:21;;;;;;;103.60;49.73;;;;;;;;;;4977237;28;20300;-77
2022/10/15 07:16:47;;;;;;;111.90;51.27;;;;;;;;;;4977275;28;20274;-78
2022/10/15 07:19:13;;;;;;;110.77;50.77;;;;;;;;;;5006118;28;20182;-77
2022/10/15 07:21:39;;;;;;;109.27;49.53;;;;;;;;;;4973890;28;20197;-78
2022/10/15 07:24:05;;;;;;;112.63;50.57;;;;;;;;;;4973725;28;20246;-77
2022/10/15 07:26:31;;;;;;;106.57;50.77;;;;;;;;;;4996492;28;20182;-77
2022/10/15 07:28:57;;;;;;;101.57;48.83;;;;;;;;;;5009517;28;20269;-82
2022/10/15 07:31:23;;;;;;;105.70;49.97;;;;;;;;;;5006194;28;20251;-82
2022/10/15 07:33:49;;;;;;;105.47;49.27;;;;;;;;;;4973624;28;20219;-82
2022/10/15 07:36:15;;;;;;;104.50;49.13;;;;;;;;;;4989653;28;20237;-82
2022/10/15 07:38:41;;;;;;;112.87;50.10;;;;;;;;;;4989887;28;20194;-82
2022/10/15 07:41:29;;;;;;;103.70;49.20;;;;;;;;;;4989755;28;20245;-82
2022/10/15 07:43:55;;;;;;;95.17;47.33;;;;;;;;;;4975084;28;20183;-82
2022/10/15 07:46:22;;;;;;;95.73;47.40;;;;;;;;;;4990366;28;20324;-82
2022/10/15 07:48:48;;;;;;;92.63;46.07;;;;;;;;;;4991472;28;20214;-82
2022/10/15 07:51:14;;;;;;;88.07;44.63;;;;;;;;;;4976850;28;20328;-83
2022/10/15 07:53:40;;;;;;;89.20;44.30;;;;;;;;;;4977069;28;20258;-82
2022/10/15 07:56:07;;;;;;;87.17;44.87;;;;;;;;;;4977212;28;20206;-82
2022/10/15 07:58:34;;;;;;;86.50;44.13;;;;;;;;;;4977285;28;20194;-82
2022/10/15 08:01:01;;;;;;;75.07;41.37;;;;;;;;;;4976950;28;20189;-82
2022/10/15 08:03:27;;;;;;;71.90;39.83;;;;;;;;;;4976673;28;20210;-82
2022/10/15 08:05:54;;;;;;;60.90;37.10;;;;;;;;;;4976633;28;20189;-82
2022/10/15 08:08:20;;;;;;;58.57;36.13;;;;;;;;;;4977458;28;20178;-82
2022/10/15 08:10:47;;;;;;;58.60;34.97;;;;;;;;;;4993029;28;20262;-82
2022/10/15 08:13:13;;;;;;;55.37;35.73;;;;;;;;;;4976892;28;20206;-82
2022/10/15 08:15:39;;;;;;;47.53;32.97;;;;;;;;;;4976528;28;20194;-82
2022/10/15 08:18:06;;;;;;;47.17;31.93;;;;;;;;;;4976424;28;20281;-89
2022/10/15 08:20:32;;;;;;;43.30;31.30;;;;;;;;;;4984586;28;20174;-89
2022/10/15 08:22:58;;;;;;;46.90;31.07;;;;;;;;;;5008717;28;20240;-89
2022/10/15 08:25:24;;;;;;;44.67;31.20;;;;;;;;;;5011305;28;20182;-89
2022/10/15 08:27:52;;;;;;;45.03;30.63;;;;;;;;;;4996050;28;20189;-89
2022/10/15 08:30:18;;;;;;;36.67;28.00;;;;;;;;;;4997007;28;20178;-89
2022/10/15 08:32:44;;;;;;;37.73;28.80;;;;;;;;;;4979774;28;20210;-89
2022/10/15 08:35:10;;;;;;;31.07;26.60;;;;;;;;;;4979618;28;20196;-82
2022/10/15 08:37:36;;;;;;;30.67;25.47;;;;;;;;;;4995702;28;20221;-82
2022/10/15 08:40:02;;;;;;;26.67;23.63;;;;;;;;;;4996755;28;20178;-82
2022/10/15 08:42:32;;;;;;;24.47;21.87;;;;;;;;;;4979626;28;20182;-82
2022/10/15 08:45:00;;;;;;;24.17;20.77;;;;;;;;;;4995484;28;20265;-82
2022/10/15 08:47:29;;;;;;;22.57;20.27;;;;;;;;;;4994825;28;20181;-82
2022/10/15 08:49:56;;;;;;;23.73;21.17;;;;;;;;;;5008562;28;20309;-82
2022/10/15 08:52:22;;;;;;;22.93;19.80;;;;;;;;;;4992284;28;20182;-78
2022/10/15 08:54:48;;;;;;;24.03;20.63;;;;;;;;;;4992109;28;20254;-78
2022/10/15 08:57:22;;;;;;;23.67;19.23;;;;;;;;;;4975946;28;20194;-78
2022/10/15 08:59:54;;;;;;;22.23;19.80;;;;;;;;;;4982736;28;20184;-78
2022/10/15 09:02:23;;;;;;;22.23;19.80;;;;;;;;;;5011317;28;20188;-78
2022/10/15 09:05:08;;;;;;;21.10;18.90;;;;;;;;;;5011523;28;20221;-78
2022/10/15 09:07:37;;;;;;;22.43;20.03;;;;;;;;;;5011824;28;20186;-82
2022/10/15 09:10:15;;;;;;;21.60;19.40;;;;;;;;;;4996261;28;20178;-82
2022/10/15 09:12:56;;;;;;;22.17;19.90;;;;;;;;;;5011557;28;20182;-82
2022/10/15 09:15:22;;;;;;;22.90;20.50;;;;;;;;;;5011418;28;20180;-82
2022/10/15 09:17:50;;;;;;;22.67;20.00;;;;;;;;;;4994964;28;20186;-82
2022/10/15 09:20:22;;;;;;;22.03;19.77;;;;;;;;;;5011241;28;20212;-82
2022/10/15 09:22:50;;;;;;;22.63;20.33;;;;;;;;;;5011456;28;20228;-82
2022/10/15 09:25:17;;;;;;;23.13;20.30;;;;;;;;;;4995361;28;20178;-82
2022/10/15 09:27:44;;;;;;;21.70;19.43;;;;;;;;;;4995812;28;20189;-82
2022/10/15 09:30:25;;;;;;;22.37;19.97;;;;;;;;;;4995632;28;20178;-82
2022/10/15 09:32:55;;;;;;;23.43;20.00;;;;;;;;;;5010517;28;20205;-82
2022/10/15 09:35:40;;;;;;;20.73;17.80;;;;;;;;;;5010715;28;20336;-82
2022/10/15 09:38:24;;;;;;;20.40;18.30;;;;;;;;;;5011193;28;20268;-82
2022/10/15 09:41:14;;;;;;;18.70;16.70;;;;;;;;;;4995604;28;20182;-80
2022/10/15 09:43:42;;;;;;;19.30;17.30;;;;;;;;;;4995642;28;20170;-80
2022/10/15 09:46:09;;;;;;;19.83;16.20;;;;;;;;;;5010491;28;20186;-80
2022/10/15 09:48:55;;;;;;;18.43;16.43;;;;;;;;;;5010890;28;20190;-80
2022/10/15 09:51:27;;;;;;;18.93;16.33;;;;;;;;;;4993597;28;20235;-80
2022/10/15 09:54:07;;;;;;;16.30;14.60;;;;;;;;;;5010547;28;20209;-80
2022/10/15 09:56:38;;;;;;;17.50;15.70;;;;;;;;;;5007371;28;20250;-80
2022/10/15 09:59:06;;;;;;;17.13;15.40;;;;;;;;;;5004042;28;20175;-78
2022/10/15 10:01:32;;;;;;;18.53;15.53;;;;;;;;;;4974969;28;20206;-78
2022/10/15 10:04:13;;;;;;;17.17;14.83;;;;;;;;;;4974718;28;20214;-78
2022/10/15 10:06:45;;;;;;;18.50;15.13;;;;;;;;;;4974956;28;20205;-78
2022/10/15 10:09:15;;;;;;;16.70;14.83;;;;;;;;;;4975519;28;20178;-77
2022/10/15 10:11:55;;;;;;;20.97;14.23;;;;;;;;;;4974212;28;20182;-78
2022/10/15 10:14:23;;;;;;;19.43;14.57;;;;;;;;;;4981499;28;20209;-89
2022/10/15 10:17:27;;;;;;;17.83;15.63;;;;;;;;;;4991012;28;20189;-89
2022/10/15 10:20:10;;;;;;;19.53;14.83;;;;;;;;;;4990041;28;20221;-86
2022/10/15 10:22:48;;;;;;;18.47;15.77;;;;;;;;;;4976814;28;20185;-89
2022/10/15 10:25:29;;;;;;;16.77;13.90;;;;;;;;;;4976760;28;20273;-88
2022/10/15 10:27:57;;;;;;;16.37;14.47;;;;;;;;;;4977544;28;20181;-89
2022/10/15 10:30:23;;;;;;;18.80;14.73;;;;;;;;;;4986754;28;20182;-90
2022/10/15 10:32:55;;;;;;;17.43;13.80;;;;;;;;;;4993977;28;20206;-90
2022/10/15 10:35:22;;;;;;;17.57;14.03;;;;;;;;;;4993754;28;20214;-90
2022/10/15 10:37:49;;;;;;;18.77;14.23;;;;;;;;;;4993570;28;20244;-90
2022/10/15 10:40:29;;;;;;;19.83;14.77;;;;;;;;;;4993700;28;20231;-89
2022/10/15 10:43:14;;;;;;;21.50;15.40;;;;;;;;;;4994239;28;20177;-89
2022/10/15 10:45:51;;;;;;;22.87;16.70;;;;;;;;;;4993754;28;20217;-89
2022/10/15 10:48:19;;;;;;;24.43;16.30;;;;;;;;;;4994772;28;20201;-79
2022/10/15 10:50:45;;;;;;;21.90;16.67;;;;;;;;;;4994603;28;20248;-79
2022/10/15 10:53:21;;;;;;;21.97;16.37;;;;;;;;;;4994618;28;20212;-80
2022/10/15 10:55:48;;;;;;;23.77;16.87;;;;;;;;;;4993314;28;20208;-80
2022/10/15 10:58:19;;;;;;;23.50;17.20;;;;;;;;;;4993363;28;20297;-80
2022/10/15 11:00:51;;;;;;;26.00;17.70;;;;;;;;;;4992711;28;20221;-79
2022/10/15 11:03:22;;;;;;;26.07;16.87;;;;;;;;;;4994711;28;20174;-79
2022/10/15 11:05:50;;;;;;;25.13;17.57;;;;;;;;;;4994459;28;20186;-78
2022/10/15 11:08:25;;;;;;;26.60;17.77;;;;;;;;;;4994377;28;20182;-78
2022/10/15 11:11:10;;;;;;;26.17;17.27;;;;;;;;;;4992845;28;20189;-77
2022/10/15 11:13:36;;;;;;;25.07;17.67;;;;;;;;;;4992629;28;20264;-78
2022/10/15 11:16:05;;;;;;;22.07;15.67;;;;;;;;;;4994529;28;20257;-78
2022/10/15 11:18:36;;;;;;;24.20;15.47;;;;;;;;;;4993710;28;20178;-78
2022/10/15 11:21:21;;;;;;;20.87;15.33;;;;;;;;;;4993070;28;20187;-83
2022/10/15 11:23:50;;;;;;;18.77;13.33;;;;;;;;;;5001625;28;20186;-83
2022/10/15 11:26:28;;;;;;;19.47;14.00;;;;;;;;;;4997034;28;20185;-82
2022/10/15 11:29:13;;;;;;;16.33;12.40;;;;;;;;;;5001429;28;20178;-82
2022/10/15 11:32:01;;;;;;;18.80;13.07;;;;;;;;;;5013087;28;20186;-82
2022/10/15 11:34:33;;;;;;;16.10;13.13;;;;;;;;;;5013157;28;20221;-83
2022/10/15 11:37:23;;;;;;;19.80;12.83;;;;;;;;;;5012725;28;20182;-83
2022/10/15 11:39:59;;;;;;;18.97;13.00;;;;;;;;;;4997104;28;20220;-82
2022/10/15 11:42:24;;;;;;;14.33;11.17;;;;;;;;;;4996527;28;20181;-80
2022/10/15 11:45:03;;;;;;;16.40;11.70;;;;;;;;;;4995943;28;20178;-80
2022/10/15 11:47:35;;;;;;;14.13;11.13;;;;;;;;;;5012344;28;20196;-80
2022/10/15 11:50:05;;;;;;;15.77;12.00;;;;;;;;;;4996263;28;20328;-80
2022/10/15 11:52:46;;;;;;;12.87;10.97;;;;;;;;;;4995543;28;20186;-80
2022/10/15 11:55:18;;;;;;;13.67;10.27;;;;;;;;;;4996877;28;20187;-89
2022/10/15 11:57:45;;;;;;;13.37;10.13;;;;;;;;;;5009042;28;20183;-90
2022/10/15 12:00:11;;;;;;;12.37;10.67;;;;;;;;;;5000347;28;20235;-89
2022/10/15 12:02:38;;;;;;;14.30;10.87;;;;;;;;;;4996885;28;20256;-89
2022/10/15 12:05:09;;;;;;;13.63;11.00;;;;;;;;;;5012328;28;20186;-78
2022/10/15 12:07:43;;;;;;;12.83;10.97;;;;;;;;;;4994147;28;20182;-78
2022/10/15 12:10:12;;;;;;;13.40;11.37;;;;;;;;;;4995977;28;20184;-78
2022/10/15 12:12:56;;;;;;;13.90;11.00;;;;;;;;;;5004151;28;20189;-77
2022/10/15 12:15:31;;;;;;;14.70;11.63;;;;;;;;;;5007466;28;20288;-78
2022/10/15 12:17:57;;;;;;;12.80;11.27;;;;;;;;;;5003322;28;20237;-78
2022/10/15 12:20:25;;;;;;;12.70;11.40;;;;;;;;;;4992908;28;20218;-78
2022/10/15 12:22:58;;;;;;;14.20;11.87;;;;;;;;;;4992703;28;20274;-78
2022/10/15 12:25:31;;;;;;;14.27;10.93;;;;;;;;;;4989280;28;20205;-78
2022/10/15 12:28:01;;;;;;;12.40;10.70;;;;;;;;;;5002764;28;20200;-80
2022/10/15 12:30:33;;;;;;;12.47;11.17;;;;;;;;;;5007635;28;20184;-80
2022/10/15 12:32:59;;;;;;;12.70;11.03;;;;;;;;;;4999295;28;20209;-78
2022/10/15 12:35:30;;;;;;;12.73;10.77;;;;;;;;;;4997747;28;20316;-79
2022/10/15 12:38:08;;;;;;;13.33;11.00;;;;;;;;;;4996336;28;20173;-78
2022/10/15 12:40:34;;;;;;;14.10;10.83;;;;;;;;;;4996228;28;20178;-78
2022/10/15 12:43:01;;;;;;;11.63;10.37;;;;;;;;;;4978529;28;20190;-77
2022/10/15 12:45:33;;;;;;;11.73;10.13;;;;;;;;;;5012083;28;20260;-80
2022/10/15 12:48:05;;;;;;;12.53;10.37;;;;;;;;;;5011632;28;20221;-80
2022/10/15 12:50:32;;;;;;;11.70;10.13;;;;;;;;;;4996503;28;20253;-80
2022/10/15 12:53:27;;;;;;;11.33;9.20;;;;;;;;;;4996412;28;20213;-89
2022/10/15 12:56:15;;;;;;;10.43;9.52;;;;;;;;;;4993444;28;20419;-89
2022/10/15 12:58:45;;;;;;;12.93;11.73;;;;;;;;;;5007998;28;20405;-89
2022/10/15 13:01:14;;;;;;;11.57;10.10;;;;;;;;;;5006761;28;20174;-89
2022/10/15 13:03:50;;;;;;;11.50;10.40;;;;;;;;;;4995496;28;20174;-88
2022/10/15 13:06:24;;;;;;;11.47;10.27;;;;;;;;;;5020545;22;20240;-83
2022/10/15 13:09:05;;;;;;;12.33;9.93;;;;;;;;;;5014050;28;20173;-82
2022/10/15 13:11:34;;;;;;;11.33;10.00;;;;;;;;;;5013997;28;20189;-82
2022/10/15 13:14:02;;;;;;;11.20;10.00;;;;;;;;;;5013738;28;20205;-83
2022/10/15 13:16:28;;;;;;;11.17;10.07;;;;;;;;;;5015121;28;20169;-83
2022/10/15 13:18:56;;;;;;;10.83;9.93;;;;;;;;;;5014128;28;20185;-88
2022/10/15 13:21:22;;;;;;;11.30;10.13;;;;;;;;;;5014019;28;20177;-89
2022/10/15 13:23:49;;;;;;;11.10;10.00;;;;;;;;;;4997409;28;20189;-89
2022/10/15 13:26:25;;;;;;;10.97;9.87;;;;;;;;;;5013576;28;20248;-89
2022/10/15 13:28:53;;;;;;;11.00;9.83;;;;;;;;;;5011776;28;21000;-89
2022/10/15 13:31:23;;;;;;;10.97;10.00;;;;;;;;;;5013267;28;20231;-89
2022/10/15 13:33:50;;;;;;;10.60;9.60;;;;;;;;;;5013150;28;20208;-89
2022/10/15 13:36:22;;;;;;;10.23;9.27;;;;;;;;;;5013269;28;20177;-78
2022/10/15 13:38:53;;;;;;;11.10;10.10;;;;;;;;;;5001123;28;20169;-78
2022/10/15 13:41:23;;;;;;;10.60;9.70;;;;;;;;;;5013579;28;20185;-89
2022/10/15 13:43:57;;;;;;;10.40;9.50;;;;;;;;;;5012472;28;20191;-89
2022/10/15 13:46:23;;;;;;;10.37;9.47;;;;;;;;;;5013572;28;20181;-89
2022/10/15 13:48:55;;;;;;;10.27;9.37;;;;;;;;;;5029791;28;20189;-89
2022/10/15 13:51:21;;;;;;;9.63;8.83;;;;;;;;;;5013460;28;20208;-78
2022/10/15 13:53:47;;;;;;;9.03;8.23;;;;;;;;;;5046330;28;20233;-78
2022/10/15 13:56:25;;;;;;;9.20;8.40;;;;;;;;;;5013309;28;20223;-78
2022/10/15 13:58:52;;;;;;;9.80;8.87;;;;;;;;;;5013237;28;20180;-78
2022/10/15 14:01:22;;;;;;;10.50;9.40;;;;;;;;;;5010286;28;20275;-78
2022/10/15 14:03:49;;;;;;;10.73;9.73;;;;;;;;;;5010404;28;20238;-78
2022/10/15 14:06:23;;;;;;;10.23;9.33;;;;;;;;;;5011300;28;20235;-78
2022/10/15 14:08:50;;;;;;;10.30;9.40;;;;;;;;;;5012347;28;20181;-80
2022/10/15 14:11:19;;;;;;;10.17;9.27;;;;;;;;;;5012508;28;20174;-80
2022/10/15 14:13:46;;;;;;;10.00;9.13;;;;;;;;;;5011200;28;20208;-80
2022/10/15 14:16:15;;;;;;;9.30;8.40;;;;;;;;;;4994486;28;20197;-80
2022/10/15 14:18:45;;;;;;;8.37;7.67;;;;;;;;;;5012617;28;20180;-80
2022/10/15 14:21:12;;;;;;;8.50;7.50;;;;;;;;;;5010085;28;20186;-79
2022/10/15 14:23:39;;;;;;;8.37;7.57;;;;;;;;;;4988650;28;20193;-78
2022/10/15 14:26:05;;;;;;;8.00;7.30;;;;;;;;;;5008667;28;20192;-78
2022/10/15 14:28:32;;;;;;;7.97;7.30;;;;;;;;;;5010679;28;20256;-79